Time;durP1;ratioP1;P1;durP2;ratioP2;P2;SDS_P1;SDS_P2;PMS_P1;PMS_P2;Temp;Humidity;BMP_temperature;BMP_pressure;BME280_temperature;BME280_humidity;BME280_pressure;Samples;Min_cycle;Max_cycle;Signal;HPM_P1;HPM_P2
2021/12/22 09:15:39;;;;;;;15.07;8.73;;;;;;;;;;5162341;27;20385;-79
2021/12/22 09:18:04;;;;;;;16.05;9.70;;;;;;;;;;5113704;28;20045;-79
2021/12/22 09:20:29;;;;;;;20.10;9.10;;;;;;;;;;5140139;28;20027;-79
2021/12/22 09:22:55;;;;;;;14.00;9.05;;;;;;;;;;5141188;27;20030;-80
2021/12/22 09:25:21;;;;;;;13.10;8.23;;;;;;;;;;5140092;27;20083;-77
2021/12/22 09:27:46;;;;;;;15.10;8.98;;;;;;;;;;5138472;28;20046;-77
2021/12/22 09:30:12;;;;;;;18.38;9.40;;;;;;;;;;5140780;27;20073;-77
2021/12/22 09:32:38;;;;;;;15.80;9.20;;;;;;;;;;5138224;28;20480;-78
2021/12/22 09:35:04;;;;;;;18.92;10.77;;;;;;;;;;5137256;28;20023;-77
2021/12/22 09:37:30;;;;;;;16.05;9.07;;;;;;;;;;5138870;27;20355;-79
2021/12/22 09:39:55;;;;;;;14.65;8.75;;;;;;;;;;5133565;27;20414;-77
2021/12/22 09:42:21;;;;;;;22.88;9.02;;;;;;;;;;5137144;28;20103;-78
2021/12/22 09:44:47;;;;;;;14.30;8.50;;;;;;;;;;5134237;28;20472;-78
2021/12/22 09:47:16;;;;;;;16.70;8.68;;;;;;;;;;5121683;28;20142;-80
2021/12/22 09:52:21;;;;;;;15.77;9.30;;;;;;;;;;5137534;27;20047;-80
2021/12/22 09:54:49;;;;;;;16.40;9.23;;;;;;;;;;5122826;28;20047;-77
2021/12/22 09:57:17;;;;;;;16.65;9.93;;;;;;;;;;5129939;28;20016;-81
2021/12/22 09:59:49;;;;;;;21.92;9.55;;;;;;;;;;5137343;28;20036;-78
2021/12/22 10:02:16;;;;;;;15.57;9.40;;;;;;;;;;5135908;28;20473;-78
2021/12/22 10:04:43;;;;;;;16.95;8.95;;;;;;;;;;5134739;28;20103;-79
2021/12/22 10:07:15;;;;;;;14.30;8.73;;;;;;;;;;5120889;28;20042;-79
2021/12/22 10:09:45;;;;;;;21.70;9.55;;;;;;;;;;5124075;28;20028;-78
2021/12/22 10:12:29;;;;;;;21.95;13.00;;;;;;;;;;5137095;28;20023;-77
2021/12/22 10:14:58;;;;;;;17.70;11.02;;;;;;;;;;5122321;28;20052;-79
2021/12/22 10:17:39;;;;;;;16.33;10.75;;;;;;;;;;5139638;28;20044;-78
2021/12/22 10:20:26;;;;;;;15.60;9.23;;;;;;;;;;5118663;28;20042;-77
2021/12/22 10:22:53;;;;;;;15.52;9.52;;;;;;;;;;5124745;28;20062;-79
2021/12/22 10:25:25;;;;;;;13.85;8.05;;;;;;;;;;5134128;27;20032;-80
2021/12/22 10:28:17;;;;;;;13.80;8.55;;;;;;;;;;5126661;27;20031;-79
2021/12/22 10:30:44;;;;;;;14.93;8.48;;;;;;;;;;5112237;28;20095;-78
2021/12/22 10:33:17;;;;;;;11.02;7.70;;;;;;;;;;5114541;28;20036;-79
2021/12/22 10:35:48;;;;;;;14.35;7.63;;;;;;;;;;5113735;28;20038;-79
2021/12/22 10:38:17;;;;;;;17.02;8.73;;;;;;;;;;5126470;28;20020;-78
2021/12/22 10:40:45;;;;;;;15.68;8.57;;;;;;;;;;5131744;28;20031;-77
2021/12/22 10:43:22;;;;;;;12.18;7.88;;;;;;;;;;5118455;28;20055;-79
2021/12/22 10:45:51;;;;;;;16.48;8.25;;;;;;;;;;5116701;28;20024;-79
2021/12/22 10:51:05;;;;;;;12.82;8.48;;;;;;;;;;5130042;28;20038;-80
2021/12/22 10:53:31;;;;;;;16.58;8.77;;;;;;;;;;5131420;28;20027;-78
2021/12/22 10:55:57;;;;;;;15.70;8.93;;;;;;;;;;5114110;28;20011;-77
2021/12/22 10:58:28;;;;;;;14.20;7.85;;;;;;;;;;5112160;28;20028;-76
2021/12/22 11:01:05;;;;;;;14.38;8.38;;;;;;;;;;5124196;28;20035;-76
2021/12/22 11:03:53;;;;;;;12.75;7.95;;;;;;;;;;5122665;28;20035;-77
2021/12/22 11:06:27;;;;;;;12.95;7.75;;;;;;;;;;5122537;28;20043;-78
2021/12/22 11:09:10;;;;;;;10.50;7.32;;;;;;;;;;5126693;28;20016;-77
2021/12/22 11:11:38;;;;;;;12.63;7.22;;;;;;;;;;5126429;28;20115;-77
2021/12/22 11:14:05;;;;;;;13.98;7.20;;;;;;;;;;5128450;28;20367;-77
2021/12/22 11:16:30;;;;;;;16.17;7.78;;;;;;;;;;5127488;28;20082;-77
2021/12/22 11:19:07;;;;;;;12.50;8.10;;;;;;;;;;5110713;28;20039;-75
2021/12/22 11:21:35;;;;;;;11.07;7.93;;;;;;;;;;5128496;28;20035;-76
2021/12/22 11:24:01;;;;;;;14.85;8.75;;;;;;;;;;5120830;28;20069;-78
2021/12/22 11:26:26;;;;;;;16.38;9.65;;;;;;;;;;5095472;28;20031;-78
2021/12/22 11:28:52;;;;;;;15.68;9.23;;;;;;;;;;5113482;28;20043;-76
2021/12/22 11:31:17;;;;;;;13.80;8.00;;;;;;;;;;5095123;28;20127;-77
2021/12/22 11:33:45;;;;;;;13.93;9.20;;;;;;;;;;5113621;28;20062;-77
2021/12/22 11:36:12;;;;;;;18.20;7.95;;;;;;;;;;5112681;28;20106;-77
2021/12/22 11:38:38;;;;;;;14.93;8.82;;;;;;;;;;5112409;28;20047;-76
2021/12/22 11:41:14;;;;;;;14.68;8.00;;;;;;;;;;5098338;28;20071;-78
2021/12/22 11:43:41;;;;;;;17.70;9.23;;;;;;;;;;5094919;28;20478;-78
2021/12/22 11:46:07;;;;;;;11.10;8.57;;;;;;;;;;5112455;28;20440;-78
2021/12/22 11:48:33;;;;;;;12.07;7.72;;;;;;;;;;5112886;28;20019;-77
2021/12/22 11:50:59;;;;;;;14.57;7.95;;;;;;;;;;5095057;28;20088;-78
2021/12/22 11:53:24;;;;;;;12.55;8.48;;;;;;;;;;5094904;28;20035;-78
2021/12/22 11:55:52;;;;;;;14.80;7.93;;;;;;;;;;5113218;28;20111;-78
2021/12/22 11:58:20;;;;;;;14.45;8.30;;;;;;;;;;5112202;28;20024;-77
2021/12/22 12:00:55;;;;;;;13.15;7.80;;;;;;;;;;5112199;28;20083;-77
2021/12/22 12:03:34;;;;;;;12.48;8.25;;;;;;;;;;5113873;28;20070;-77
2021/12/22 12:06:08;;;;;;;12.68;8.18;;;;;;;;;;5113669;28;20024;-77
2021/12/22 12:08:49;;;;;;;17.83;8.48;;;;;;;;;;5114980;28;20084;-79
2021/12/22 12:11:19;;;;;;;11.63;5.60;;;;;;;;;;5109019;28;20530;-79
2021/12/22 12:14:04;;;;;;;9.25;5.05;;;;;;;;;;5096095;28;20486;-81
2021/12/22 12:22:42;;;;;;;6.78;4.38;;;;;;;;;;5111026;28;20030;-79
2021/12/22 12:25:12;;;;;;;9.13;4.43;;;;;;;;;;5047443;28;20384;-79
2021/12/22 12:27:43;;;;;;;7.10;4.30;;;;;;;;;;5016396;28;20149;-78
2021/12/22 12:30:13;;;;;;;6.05;4.00;;;;;;;;;;5034542;28;20454;-81
2021/12/22 12:32:38;;;;;;;8.93;4.38;;;;;;;;;;5049658;28;20095;-79
2021/12/22 12:35:31;;;;;;;6.00;4.07;;;;;;;;;;5049666;28;20029;-80
2021/12/22 12:38:04;;;;;;;5.63;4.10;;;;;;;;;;5049562;28;20029;-79
2021/12/22 12:40:58;;;;;;;8.80;4.22;;;;;;;;;;5035996;28;20457;-82
2021/12/22 12:43:42;;;;;;;5.07;3.70;;;;;;;;;;5046042;28;20051;-80
2021/12/22 12:46:19;;;;;;;8.60;4.05;;;;;;;;;;5050116;28;20554;-82
2021/12/22 12:48:50;;;;;;;5.50;3.78;;;;;;;;;;5049898;28;20112;-80
2021/12/22 12:51:24;;;;;;;5.50;3.55;;;;;;;;;;5049314;28;20083;-81
2021/12/22 12:53:51;;;;;;;5.68;3.55;;;;;;;;;;5032566;28;20040;-80
2021/12/22 12:56:18;;;;;;;5.38;3.60;;;;;;;;;;5049925;28;20051;-79
2021/12/22 12:59:13;;;;;;;5.70;3.28;;;;;;;;;;5038512;28;20078;-81
2021/12/22 13:01:50;;;;;;;4.75;3.35;;;;;;;;;;5108829;27;20024;-79
2021/12/22 13:04:18;;;;;;;8.13;3.40;;;;;;;;;;5107709;28;20021;-81
2021/12/22 13:06:44;;;;;;;6.00;3.28;;;;;;;;;;5109865;28;20422;-79
2021/12/22 13:09:24;;;;;;;4.60;3.35;;;;;;;;;;5110698;28;20019;-79
2021/12/22 13:11:56;;;;;;;7.72;3.25;;;;;;;;;;5114282;28;20024;-81
2021/12/22 13:17:15;;;;;;;8.27;4.05;;;;;;;;;;5111674;28;20027;-79
2021/12/22 13:19:49;;;;;;;7.35;3.97;;;;;;;;;;5113650;28;20019;-78
2021/12/22 13:22:28;;;;;;;9.38;3.63;;;;;;;;;;5112528;28;20470;-79
2021/12/22 13:25:23;;;;;;;8.45;4.15;;;;;;;;;;5116588;28;20024;-81
2021/12/22 13:27:55;;;;;;;10.30;3.95;;;;;;;;;;5113076;28;20043;-79
2021/12/22 13:30:27;;;;;;;8.68;3.65;;;;;;;;;;5116594;28;20027;-79
2021/12/22 13:33:04;;;;;;;5.05;3.47;;;;;;;;;;5096598;28;20028;-82
2021/12/22 13:35:40;;;;;;;5.80;3.63;;;;;;;;;;5114599;28;20200;-80
2021/12/22 13:38:09;;;;;;;8.75;3.35;;;;;;;;;;5113148;28;20084;-80
2021/12/22 13:40:48;;;;;;;4.70;3.15;;;;;;;;;;5114512;28;20477;-79
2021/12/22 13:43:22;;;;;;;4.90;3.42;;;;;;;;;;5117553;28;20032;-79
2021/12/22 13:45:49;;;;;;;4.18;3.42;;;;;;;;;;5116223;28;20020;-79
2021/12/22 13:48:26;;;;;;;5.80;3.30;;;;;;;;;;5095514;28;20089;-80
2021/12/22 13:50:53;;;;;;;5.32;3.08;;;;;;;;;;5096060;28;20031;-79
2021/12/22 13:53:20;;;;;;;4.50;3.13;;;;;;;;;;5118581;28;20046;-79
2021/12/22 13:55:46;;;;;;;4.45;3.38;;;;;;;;;;5112978;28;20519;-80
2021/12/22 13:58:34;;;;;;;11.10;3.58;;;;;;;;;;5115655;28;20449;-81
2021/12/22 14:01:12;;;;;;;5.10;3.10;;;;;;;;;;5115558;28;20099;-78
2021/12/22 14:03:38;;;;;;;6.97;3.25;;;;;;;;;;5119042;28;20028;-78
2021/12/22 14:06:07;;;;;;;4.30;2.88;;;;;;;;;;5116831;28;20023;-79
2021/12/22 14:08:34;;;;;;;7.57;3.50;;;;;;;;;;5124354;28;20035;-78
2021/12/22 14:11:00;;;;;;;3.92;3.10;;;;;;;;;;5099037;28;20188;-77
2021/12/22 14:13:29;;;;;;;4.50;3.42;;;;;;;;;;5121073;28;20070;-78
2021/12/22 14:15:55;;;;;;;4.35;3.28;;;;;;;;;;5127836;28;20051;-77
2021/12/22 14:18:21;;;;;;;4.82;2.80;;;;;;;;;;5119801;28;20031;-77
2021/12/22 14:20:46;;;;;;;3.38;2.80;;;;;;;;;;5122115;28;20050;-78
2021/12/22 14:23:11;;;;;;;4.65;3.15;;;;;;;;;;5120109;28;20474;-77
2021/12/22 14:25:39;;;;;;;6.72;3.28;;;;;;;;;;5127229;28;20072;-78
2021/12/22 14:28:21;;;;;;;6.85;2.83;;;;;;;;;;5103399;28;20024;-78
2021/12/22 14:30:46;;;;;;;4.40;2.97;;;;;;;;;;5121731;28;20023;-78
2021/12/22 14:33:14;;;;;;;5.07;2.75;;;;;;;;;;5123728;28;20436;-81
2021/12/22 14:35:45;;;;;;;3.30;2.80;;;;;;;;;;5121728;28;20462;-78
2021/12/22 14:38:17;;;;;;;5.43;3.08;;;;;;;;;;5102134;28;20024;-79
2021/12/22 14:40:50;;;;;;;5.18;2.85;;;;;;;;;;5117647;28;20024;-79
2021/12/22 14:43:15;;;;;;;3.03;2.50;;;;;;;;;;5118544;28;20027;-80
2021/12/22 14:45:51;;;;;;;3.65;2.88;;;;;;;;;;5118472;28;20326;-79
2021/12/22 14:48:22;;;;;;;5.22;2.75;;;;;;;;;;5118198;28;20051;-80
2021/12/22 14:51:26;;;;;;;23.98;3.67;;;;;;;;;;5116027;27;20111;-79
2021/12/22 14:54:00;;;;;;;5.55;3.42;;;;;;;;;;5052237;28;20029;-77
2021/12/22 14:56:47;;;;;;;6.50;3.15;;;;;;;;;;5023954;28;20045;-79
2021/12/22 14:59:13;;;;;;;7.68;2.88;;;;;;;;;;5035695;28;20036;-80
2021/12/22 15:01:40;;;;;;;4.43;2.88;;;;;;;;;;5037052;28;20064;-78
2021/12/22 15:04:05;;;;;;;6.60;3.30;;;;;;;;;;5042295;28;20480;-79
2021/12/22 15:06:31;;;;;;;8.73;3.40;;;;;;;;;;5019818;28;20040;-79
2021/12/22 15:08:58;;;;;;;6.50;3.20;;;;;;;;;;5023653;28;20040;-79
2021/12/22 15:11:24;;;;;;;6.22;3.17;;;;;;;;;;5049517;28;20518;-80
2021/12/22 15:13:50;;;;;;;5.13;3.50;;;;;;;;;;5020443;28;20048;-80
2021/12/22 15:16:18;;;;;;;4.30;3.20;;;;;;;;;;5030873;28;20510;-81
2021/12/22 15:18:43;;;;;;;12.70;3.08;;;;;;;;;;5024032;28;20124;-80
2021/12/22 15:21:10;;;;;;;4.30;2.92;;;;;;;;;;5020530;28;20504;-79
2021/12/22 15:23:36;;;;;;;5.45;3.13;;;;;;;;;;5005973;27;20033;-79
2021/12/22 15:26:01;;;;;;;4.03;2.95;;;;;;;;;;5095639;28;20505;-79
2021/12/22 15:28:27;;;;;;;4.43;3.00;;;;;;;;;;5114243;28;20032;-80
2021/12/22 15:30:52;;;;;;;7.80;4.10;;;;;;;;;;5112493;28;20043;-78
2021/12/22 15:33:21;;;;;;;5.93;3.20;;;;;;;;;;5115113;28;20041;-81
2021/12/22 15:35:47;;;;;;;5.05;3.25;;;;;;;;;;5111715;28;20072;-79
2021/12/22 15:38:12;;;;;;;7.20;3.20;;;;;;;;;;5114841;28;20027;-78
2021/12/22 15:40:38;;;;;;;3.17;2.70;;;;;;;;;;5112156;28;20105;-77
2021/12/22 15:43:04;;;;;;;6.43;2.85;;;;;;;;;;5114285;28;20024;-78
2021/12/22 15:45:29;;;;;;;4.40;3.22;;;;;;;;;;5113829;27;20148;-78
2021/12/22 15:47:56;;;;;;;7.38;3.58;;;;;;;;;;5113282;28;20528;-79
2021/12/22 15:50:24;;;;;;;5.05;3.55;;;;;;;;;;5112983;28;20478;-80
2021/12/22 15:52:49;;;;;;;4.75;3.30;;;;;;;;;;5095252;28;20041;-79
2021/12/22 15:55:15;;;;;;;6.32;2.90;;;;;;;;;;5111544;28;20114;-80
2021/12/22 15:57:40;;;;;;;5.13;3.13;;;;;;;;;;5112227;28;20027;-80
2021/12/22 16:00:10;;;;;;;4.55;2.97;;;;;;;;;;5113635;28;20451;-79
2021/12/22 16:02:35;;;;;;;4.63;3.20;;;;;;;;;;5094667;28;20031;-79
2021/12/22 16:05:01;;;;;;;5.25;3.15;;;;;;;;;;5113730;28;20488;-80
2021/12/22 16:07:26;;;;;;;5.35;2.97;;;;;;;;;;5110211;28;20388;-79
2021/12/22 16:09:52;;;;;;;3.80;3.00;;;;;;;;;;5112536;28;20031;-79
2021/12/22 16:12:17;;;;;;;4.95;3.00;;;;;;;;;;5110828;28;20546;-81
2021/12/22 16:14:42;;;;;;;5.03;2.80;;;;;;;;;;5110225;28;20039;-81
2021/12/22 16:17:08;;;;;;;5.20;3.00;;;;;;;;;;5112357;28;20141;-80
